Bilzen, Belgium
Current Conditions -  °F | °C
As of 7:25 AM on Thursday 27 Nov 2014 (Local Time) from EHBK Reporting Station
Few Clouds Few Clouds  
Wind Chill: 40°   Ceiling: Unl
Heat Index: 45°   Visibility: 4mi
Dew Point: 43°   Wind: 8mph
Humidity: 93%   Direction: 100°E
Pressure: 29.77"   Gusts: NA
Location:  50.87°N, 5.52°E
Report Text: EHBK 270625Z AUTO 10007KT 7000 FEW047 07/06 Q1008 NOSIG
Loading
Personal Weather Stations






























Interactive Weather Map New forecast layout! Learn more

10-Day Weather Forecast

Advertisements
Track Severe Weather on mobile